Time;durP1;ratioP1;P1;durP2;ratioP2;P2;SDS_P1;SDS_P2;PMS_P1;PMS_P2;Temp;Humidity;BMP_temperature;BMP_pressure;BME280_temperature;BME280_humidity;BME280_pressure;Samples;Min_cycle;Max_cycle;Signal;HPM_P1;HPM_P2
2022/06/28 00:00:23;;;;;;;3.03;2.13;;;16.20;99.90;;;;;;5010849;28;20453;-75
2022/06/28 00:02:49;;;;;;;2.77;2.07;;;16.10;99.90;;;;;;5011109;28;20457;-75
2022/06/28 00:05:15;;;;;;;3.40;2.03;;;16.10;99.90;;;;;;5010804;28;20820;-75
2022/06/28 00:07:41;;;;;;;4.90;2.20;;;16.10;99.90;;;;;;5011206;28;20437;-75
2022/06/28 00:10:08;;;;;;;7.20;2.30;;;16.00;99.90;;;;;;5010904;28;20237;-75
2022/06/28 00:12:35;;;;;;;2.60;1.80;;;16.00;99.90;;;;;;5010737;28;20461;-75
2022/06/28 00:17:45;;;;;;;4.33;2.47;;;15.90;99.90;;;;;;4996127;28;20432;-75
2022/06/28 00:20:12;;;;;;;4.03;2.47;;;15.80;99.90;;;;;;5010674;28;20408;-75
2022/06/28 00:22:37;;;;;;;3.13;1.93;;;15.80;99.90;;;;;;5011213;28;20601;-75
2022/06/28 00:25:04;;;;;;;3.13;2.40;;;15.80;99.90;;;;;;5010857;28;20545;-75
2022/06/28 00:27:30;;;;;;;4.20;2.23;;;15.70;99.90;;;;;;5010813;28;20649;-75
2022/06/28 00:29:55;;;;;;;2.40;2.20;;;15.70;99.90;;;;;;5010823;28;20434;-74
2022/06/28 00:32:21;;;;;;;6.07;2.20;;;15.70;99.90;;;;;;5010706;28;20210;-74
2022/06/28 00:34:47;;;;;;;2.47;2.10;;;15.60;99.90;;;;;;5010606;28;20207;-75
2022/06/28 00:37:13;;;;;;;11.37;2.43;;;15.60;99.90;;;;;;5010737;28;20187;-75
2022/06/28 00:39:39;;;;;;;2.33;2.13;;;15.60;99.90;;;;;;4992534;28;20483;-75
2022/06/28 00:42:07;;;;;;;1.77;1.53;;;15.70;99.90;;;;;;5010466;28;20513;-74
2022/06/28 00:44:33;;;;;;;2.80;2.10;;;15.70;99.90;;;;;;5010077;28;20442;-75
2022/06/28 00:47:00;;;;;;;2.63;2.13;;;15.70;99.90;;;;;;4992166;28;20449;-74
2022/06/28 00:49:26;;;;;;;1.90;1.80;;;15.80;99.90;;;;;;5010104;28;20213;-74
2022/06/28 00:51:52;;;;;;;3.20;2.27;;;15.60;99.90;;;;;;5010717;28;20755;-75
2022/06/28 00:54:18;;;;;;;9.30;2.37;;;15.70;99.90;;;;;;4978180;28;20457;-75
2022/06/28 00:56:43;;;;;;;2.20;2.10;;;15.60;99.90;;;;;;5012418;28;20185;-76
2022/06/28 00:59:09;;;;;;;3.63;2.17;;;15.50;99.90;;;;;;4994127;28;20626;-75
2022/06/28 01:01:34;;;;;;;3.70;2.10;;;15.50;99.90;;;;;;4994294;28;20191;-75
2022/06/28 01:04:00;;;;;;;3.83;1.80;;;15.60;99.90;;;;;;5011231;28;20201;-74
2022/06/28 01:06:26;;;;;;;4.27;2.17;;;15.50;99.90;;;;;;5010937;28;20203;-75
2022/06/28 01:08:51;;;;;;;5.97;2.07;;;15.50;99.90;;;;;;5010722;28;20219;-75
2022/06/28 01:11:21;;;;;;;2.10;2.00;;;15.50;99.90;;;;;;5019750;28;20261;-75
2022/06/28 01:13:50;;;;;;;2.47;2.27;;;15.50;99.90;;;;;;5018245;28;20218;-75
2022/06/28 01:16:17;;;;;;;6.17;2.20;;;15.50;99.90;;;;;;5034925;28;20417;-75
2022/06/28 01:18:43;;;;;;;4.60;2.60;;;15.60;99.90;;;;;;5030239;28;20439;-75
2022/06/28 01:21:11;;;;;;;2.50;2.30;;;15.60;99.90;;;;;;4994949;28;20473;-75
2022/06/28 01:23:37;;;;;;;3.70;2.30;;;15.60;99.90;;;;;;5010672;28;20903;-75
2022/06/28 01:26:03;;;;;;;6.10;2.10;;;15.50;99.90;;;;;;5010680;28;20472;-75
2022/06/28 01:28:31;;;;;;;6.00;2.23;;;15.60;99.90;;;;;;5013063;28;20417;-75
2022/06/28 01:30:57;;;;;;;3.47;1.97;;;15.70;99.90;;;;;;5010148;28;20448;-75
2022/06/28 01:33:23;;;;;;;12.50;2.17;;;15.80;99.90;;;;;;4976020;28;20974;-75
2022/06/28 01:35:48;;;;;;;2.50;2.30;;;15.90;99.90;;;;;;5009668;28;20201;-75
2022/06/28 01:38:14;;;;;;;5.30;2.10;;;15.90;99.90;;;;;;4991686;28;20190;-75
2022/06/28 01:40:46;;;;;;;2.67;2.33;;;16.00;99.90;;;;;;5009791;28;20199;-76
2022/06/28 01:43:13;;;;;;;4.40;2.13;;;16.00;99.90;;;;;;5009920;28;20888;-75
2022/06/28 01:45:40;;;;;;;2.60;1.93;;;16.00;99.90;;;;;;5009515;28;20446;-75
2022/06/28 01:48:06;;;;;;;1.80;1.70;;;16.00;99.90;;;;;;5009736;28;20825;-76
2022/06/28 01:50:32;;;;;;;3.00;2.37;;;16.10;99.90;;;;;;5009525;28;20431;-75
2022/06/28 01:52:58;;;;;;;2.00;1.80;;;16.20;99.90;;;;;;5009277;28;20469;-75
2022/06/28 01:55:24;;;;;;;3.70;2.10;;;16.20;99.90;;;;;;5008909;28;20306;-73
2022/06/28 01:57:49;;;;;;;3.00;2.40;;;16.20;99.90;;;;;;5009294;28;20183;-75
2022/06/28 02:00:15;;;;;;;3.80;2.00;;;16.20;99.90;;;;;;4991688;28;20193;-75
2022/06/28 02:02:42;;;;;;;2.10;2.00;;;16.30;99.90;;;;;;4991611;28;20245;-76
2022/06/28 02:05:08;;;;;;;3.37;2.20;;;16.40;99.90;;;;;;5009175;28;20442;-75
2022/06/28 02:07:34;;;;;;;4.23;1.70;;;16.40;99.90;;;;;;5009475;28;20423;-76
2022/06/28 02:10:00;;;;;;;2.07;1.83;;;16.40;99.90;;;;;;5009697;28;20436;-76
2022/06/28 02:12:28;;;;;;;3.60;2.40;;;16.30;99.90;;;;;;4991643;28;20231;-75
2022/06/28 02:14:56;;;;;;;1.50;1.40;;;16.20;99.90;;;;;;4991878;28;20447;-75
2022/06/28 02:17:21;;;;;;;2.60;2.20;;;16.20;99.90;;;;;;4991434;28;20549;-75
2022/06/28 02:19:47;;;;;;;6.40;2.20;;;16.20;99.90;;;;;;4991652;28;20546;-75
2022/06/28 02:22:13;;;;;;;5.67;2.03;;;16.20;99.90;;;;;;4974993;28;20189;-75
2022/06/28 02:24:39;;;;;;;1.90;1.70;;;16.10;99.90;;;;;;5008948;28;20218;-75
2022/06/28 02:27:05;;;;;;;3.20;2.10;;;16.20;99.90;;;;;;4991699;28;20187;-75
2022/06/28 02:29:31;;;;;;;3.20;2.10;;;16.30;99.90;;;;;;5008695;28;20440;-76
2022/06/28 02:31:57;;;;;;;4.40;2.03;;;16.40;99.90;;;;;;4991382;28;20249;-75
2022/06/28 02:42:35;;;;;;;2.70;1.90;;;16.50;99.90;;;;;;5009053;28;20457;-76
2022/06/28 02:45:00;;;;;;;4.67;1.87;;;16.40;99.90;;;;;;5009264;28;20514;-75
2022/06/28 02:47:26;;;;;;;6.50;1.93;;;16.40;99.90;;;;;;5009208;28;20192;-77
2022/06/28 02:49:52;;;;;;;3.00;1.70;;;16.30;99.90;;;;;;5008700;28;20263;-76
2022/06/28 02:52:17;;;;;;;4.47;2.00;;;16.40;99.90;;;;;;4994060;28;20266;-74
2022/06/28 02:54:43;;;;;;;4.23;1.23;;;16.40;99.90;;;;;;5011886;28;20288;-75
2022/06/28 02:57:08;;;;;;;2.13;1.80;;;16.40;99.90;;;;;;5012065;28;20191;-75
2022/06/28 02:59:34;;;;;;;2.60;1.60;;;16.40;99.90;;;;;;5012219;28;20254;-76
2022/06/28 03:02:00;;;;;;;1.90;1.70;;;16.30;99.90;;;;;;4977939;28;20289;-76
2022/06/28 03:04:25;;;;;;;4.23;1.50;;;16.40;99.90;;;;;;4977834;28;20215;-76
2022/06/28 03:06:51;;;;;;;1.73;1.53;;;16.40;99.90;;;;;;5011813;28;20234;-76
2022/06/28 03:09:16;;;;;;;3.90;1.60;;;16.40;99.90;;;;;;4994057;28;20194;-76
2022/06/28 03:11:42;;;;;;;1.90;1.80;;;16.40;99.90;;;;;;4993945;28;20657;-76
2022/06/28 03:14:08;;;;;;;4.70;2.20;;;16.40;99.90;;;;;;5011550;28;20261;-75
2022/06/28 03:16:34;;;;;;;3.30;1.40;;;16.40;99.90;;;;;;5011796;28;20313;-76
2022/06/28 03:18:59;;;;;;;3.77;1.60;;;16.30;99.90;;;;;;5012278;28;20423;-76
2022/06/28 03:21:25;;;;;;;4.53;1.90;;;16.40;99.90;;;;;;5011299;28;20187;-76
2022/06/28 03:23:51;;;;;;;4.30;2.37;;;16.30;99.90;;;;;;5011204;28;20231;-76
2022/06/28 03:26:16;;;;;;;1.97;1.80;;;16.20;99.90;;;;;;5011164;28;20197;-76
2022/06/28 03:28:42;;;;;;;1.90;1.70;;;16.20;99.90;;;;;;5011058;28;20191;-73
2022/06/28 03:31:07;;;;;;;2.13;2.03;;;16.20;99.90;;;;;;5010832;28;20559;-74
2022/06/28 03:33:33;;;;;;;3.00;1.60;;;16.20;99.90;;;;;;4992592;28;20230;-74
2022/06/28 03:35:59;;;;;;;3.90;2.00;;;16.30;99.90;;;;;;5010395;28;20180;-74
2022/06/28 03:38:24;;;;;;;3.53;1.93;;;16.20;99.90;;;;;;5010084;28;20198;-74
2022/06/28 03:40:50;;;;;;;2.60;1.90;;;16.20;99.90;;;;;;4992858;28;20196;-74
2022/06/28 03:43:16;;;;;;;5.27;1.87;;;16.20;99.90;;;;;;4976339;28;20195;-74
2022/06/28 03:45:41;;;;;;;7.00;2.10;;;16.20;99.90;;;;;;4976352;28;20463;-74
2022/06/28 03:48:07;;;;;;;3.43;2.17;;;16.20;99.90;;;;;;4992863;28;20934;-74
2022/06/28 03:50:33;;;;;;;2.70;1.30;;;16.20;99.90;;;;;;5010430;28;20198;-74
2022/06/28 03:52:59;;;;;;;5.43;2.23;;;16.30;99.90;;;;;;4992730;28;20536;-74
2022/06/28 03:55:24;;;;;;;1.90;1.80;;;16.30;99.90;;;;;;4992077;28;20211;-74
2022/06/28 03:57:50;;;;;;;1.83;1.40;;;16.30;99.90;;;;;;5009495;28;21019;-74
2022/06/28 04:00:16;;;;;;;3.37;1.90;;;16.30;99.90;;;;;;5009812;28;20246;-74
2022/06/28 04:02:42;;;;;;;2.03;1.93;;;16.40;99.90;;;;;;4991843;28;20723;-74
2022/06/28 04:05:08;;;;;;;3.43;1.70;;;16.50;99.90;;;;;;5009908;28;20590;-74
2022/06/28 04:07:34;;;;;;;1.53;1.43;;;16.50;99.90;;;;;;4992257;28;20485;-74
2022/06/28 04:10:00;;;;;;;4.50;2.03;;;16.40;99.90;;;;;;5010661;28;20923;-74
2022/06/28 04:12:25;;;;;;;2.17;1.97;;;16.40;99.90;;;;;;5010629;28;21026;-74
2022/06/28 04:14:51;;;;;;;2.23;2.03;;;16.40;99.90;;;;;;5010375;28;20523;-74
2022/06/28 04:17:16;;;;;;;3.27;1.80;;;16.40;99.90;;;;;;5010307;28;20187;-74
2022/06/28 04:19:42;;;;;;;2.40;1.90;;;16.40;99.90;;;;;;4992408;28;20191;-74
2022/06/28 04:22:08;;;;;;;2.23;2.00;;;16.40;99.90;;;;;;5010238;28;20248;-74
2022/06/28 04:24:33;;;;;;;2.90;1.63;;;16.40;99.90;;;;;;5010135;28;20207;-74
2022/06/28 04:26:59;;;;;;;4.77;1.80;;;16.40;99.90;;;;;;5010196;28;20222;-74
2022/06/28 04:29:25;;;;;;;2.20;1.87;;;16.40;99.90;;;;;;5010161;28;20294;-74
2022/06/28 04:31:51;;;;;;;3.23;1.90;;;16.50;99.90;;;;;;4992198;28;20461;-74
2022/06/28 04:34:16;;;;;;;2.30;1.80;;;16.50;99.90;;;;;;5010242;28;20210;-74
2022/06/28 04:36:42;;;;;;;1.80;1.70;;;16.50;99.90;;;;;;4992710;28;20656;-74
2022/06/28 04:39:08;;;;;;;1.87;1.77;;;16.50;99.90;;;;;;4992471;28;20633;-74
2022/06/28 04:41:33;;;;;;;3.60;2.30;;;16.60;99.90;;;;;;4992308;28;20239;-74
2022/06/28 04:44:02;;;;;;;5.03;1.93;;;16.60;99.90;;;;;;5009752;28;20208;-74
2022/06/28 04:46:28;;;;;;;5.50;2.23;;;16.70;99.90;;;;;;5009738;28;20206;-74
2022/06/28 04:48:54;;;;;;;3.97;2.40;;;16.80;99.90;;;;;;5009639;28;20805;-74
2022/06/28 04:51:20;;;;;;;6.20;3.00;;;16.80;99.90;;;;;;5009470;28;20436;-74
2022/06/28 04:53:47;;;;;;;3.83;2.60;;;16.90;99.90;;;;;;4991605;28;20218;-74
2022/06/28 04:56:13;;;;;;;2.60;2.40;;;16.90;99.90;;;;;;4992187;28;20192;-74
2022/06/28 04:58:39;;;;;;;6.17;2.50;;;17.00;99.90;;;;;;5009519;28;20414;-74
2022/06/28 05:01:05;;;;;;;6.70;2.87;;;17.00;99.90;;;;;;5009518;28;20187;-74
2022/06/28 05:03:31;;;;;;;4.50;2.70;;;17.10;99.90;;;;;;5009496;28;20442;-74
2022/06/28 05:05:57;;;;;;;5.07;3.17;;;17.20;99.90;;;;;;4975330;28;20867;-75
2022/06/28 05:08:23;;;;;;;5.10;3.40;;;17.20;99.90;;;;;;5009676;28;20246;-75
2022/06/28 05:10:49;;;;;;;10.40;2.80;;;17.20;99.90;;;;;;4991678;28;20425;-74
2022/06/28 05:13:14;;;;;;;3.30;3.00;;;17.20;99.90;;;;;;4974172;28;20898;-74
2022/06/28 05:15:40;;;;;;;11.03;2.77;;;17.20;99.90;;;;;;4991329;28;20223;-74
2022/06/28 05:18:06;;;;;;;2.43;2.33;;;17.20;99.90;;;;;;5008797;28;20283;-74
2022/06/28 05:20:32;;;;;;;5.97;2.50;;;17.30;99.90;;;;;;4974450;28;20435;-75
2022/06/28 05:22:57;;;;;;;3.40;2.10;;;17.40;99.90;;;;;;5008639;28;20649;-75
2022/06/28 05:25:25;;;;;;;4.70;2.40;;;17.40;99.90;;;;;;5008336;28;20576;-75
2022/06/28 05:27:51;;;;;;;2.90;2.10;;;17.50;99.90;;;;;;5008388;28;20221;-75
2022/06/28 05:30:17;;;;;;;2.43;2.23;;;17.60;99.90;;;;;;5008236;28;20424;-75
2022/06/28 05:32:43;;;;;;;3.00;2.30;;;17.60;99.90;;;;;;5008281;28;20484;-75
2022/06/28 05:35:09;;;;;;;4.17;2.80;;;17.60;99.90;;;;;;4990566;28;20457;-75
2022/06/28 05:37:34;;;;;;;5.37;3.10;;;17.50;99.90;;;;;;5008408;28;20199;-75
2022/06/28 05:40:01;;;;;;;3.37;2.70;;;17.40;99.90;;;;;;4974166;28;20445;-74
2022/06/28 05:42:26;;;;;;;3.70;3.40;;;17.50;99.90;;;;;;4990509;28;20191;-74
2022/06/28 05:44:52;;;;;;;8.07;3.40;;;17.40;99.90;;;;;;4990343;28;20798;-74
2022/06/28 05:47:17;;;;;;;6.60;4.30;;;17.40;99.90;;;;;;4990267;28;20201;-74
2022/06/28 05:49:43;;;;;;;4.17;3.40;;;17.40;99.90;;;;;;5008011;28;20653;-74
2022/06/28 05:52:09;;;;;;;7.40;3.97;;;17.50;99.90;;;;;;5008242;28;21173;-74
2022/06/28 05:54:35;;;;;;;4.37;3.50;;;17.50;99.90;;;;;;4990737;28;20219;-74
2022/06/28 05:57:01;;;;;;;7.20;3.47;;;17.60;99.90;;;;;;5008192;28;20182;-74
2022/06/28 05:59:27;;;;;;;8.40;5.20;;;17.60;99.90;;;;;;4990562;28;20490;-74
2022/06/28 06:01:55;;;;;;;11.03;4.57;;;17.60;99.90;;;;;;4990581;28;21097;-75
2022/06/28 06:04:22;;;;;;;11.43;7.30;;;17.70;99.90;;;;;;5008279;28;20305;-74
2022/06/28 06:06:47;;;;;;;8.60;7.70;;;17.80;99.90;;;;;;5008382;28;20510;-74
2022/06/28 06:09:14;;;;;;;18.20;9.67;;;17.70;99.90;;;;;;4990680;28;20520;-75
2022/06/28 06:11:40;;;;;;;12.83;11.37;;;17.70;99.90;;;;;;4990739;28;20180;-75
2022/06/28 06:14:05;;;;;;;18.80;9.90;;;17.60;99.90;;;;;;5008082;28;20544;-75
2022/06/28 06:16:31;;;;;;;9.87;8.97;;;17.60;99.90;;;;;;5008215;28;20260;-75
2022/06/28 06:18:57;;;;;;;13.40;9.00;;;17.70;99.90;;;;;;4990444;28;20715;-75
2022/06/28 06:21:23;;;;;;;12.70;9.30;;;17.70;99.90;;;;;;4990056;28;21086;-75
2022/06/28 06:23:48;;;;;;;12.03;8.50;;;17.60;99.90;;;;;;5007429;28;20432;-75
2022/06/28 06:26:14;;;;;;;9.80;8.90;;;17.70;99.90;;;;;;5011220;28;20661;-75
2022/06/28 06:28:39;;;;;;;12.43;10.07;;;17.80;99.90;;;;;;5011631;28;20216;-75
2022/06/28 06:31:07;;;;;;;12.10;10.60;;;17.80;99.90;;;;;;5011736;28;20194;-74
2022/06/28 06:33:34;;;;;;;17.53;10.63;;;17.90;99.90;;;;;;4994239;28;20237;-75
2022/06/28 06:35:59;;;;;;;12.93;10.23;;;18.00;99.90;;;;;;5011529;28;20425;-75
2022/06/28 06:38:25;;;;;;;11.23;9.80;;;18.00;99.90;;;;;;4993604;28;20465;-75
2022/06/28 06:40:51;;;;;;;12.20;9.23;;;18.00;99.90;;;;;;5011509;28;20253;-75
2022/06/28 06:43:16;;;;;;;16.00;11.90;;;18.00;99.90;;;;;;4993229;28;20613;-75
2022/06/28 06:45:42;;;;;;;11.97;10.73;;;18.00;99.90;;;;;;4993362;28;20246;-75
2022/06/28 06:48:08;;;;;;;16.57;11.30;;;18.10;99.90;;;;;;4993727;28;20224;-75
2022/06/28 06:50:33;;;;;;;13.70;12.20;;;18.00;99.90;;;;;;5011382;28;20192;-75
2022/06/28 06:53:02;;;;;;;13.13;11.83;;;17.90;99.90;;;;;;4993586;28;20456;-75
2022/06/28 06:55:28;;;;;;;12.27;11.17;;;17.90;99.90;;;;;;5011434;28;20257;-73
2022/06/28 06:57:53;;;;;;;11.57;10.40;;;17.90;99.90;;;;;;5011350;28;20409;-73
2022/06/28 07:00:19;;;;;;;10.73;9.43;;;17.90;99.90;;;;;;5011230;28;20498;-73
2022/06/28 07:02:45;;;;;;;14.47;9.73;;;17.90;99.90;;;;;;5011051;28;20208;-73
2022/06/28 07:05:11;;;;;;;15.43;12.07;;;17.80;99.90;;;;;;5011113;28;20220;-73
2022/06/28 07:07:37;;;;;;;11.63;10.53;;;17.70;99.90;;;;;;5011103;28;20275;-74
2022/06/28 07:10:03;;;;;;;13.87;10.23;;;17.70;99.90;;;;;;5011239;28;20524;-73
2022/06/28 07:12:30;;;;;;;12.33;11.23;;;17.70;99.90;;;;;;5011256;28;20212;-73
2022/06/28 07:14:55;;;;;;;12.50;11.20;;;17.70;99.90;;;;;;5011945;28;20445;-74
2022/06/28 07:17:21;;;;;;;13.77;11.93;;;17.60;99.90;;;;;;4994656;28;20419;-73
2022/06/28 07:19:47;;;;;;;12.60;11.40;;;17.50;99.90;;;;;;5010756;28;20269;-73
2022/06/28 07:22:13;;;;;;;12.90;11.63;;;17.50;99.90;;;;;;5010783;28;20240;-73
2022/06/28 07:24:38;;;;;;;17.47;11.50;;;17.50;99.90;;;;;;5010531;28;20212;-74
2022/06/28 07:27:04;;;;;;;12.70;11.37;;;17.50;99.90;;;;;;5010648;28;20432;-74
2022/06/28 07:29:30;;;;;;;15.80;12.13;;;17.40;99.90;;;;;;4994025;28;20189;-73
2022/06/28 07:31:56;;;;;;;12.90;11.60;;;17.40;99.90;;;;;;5012645;28;20925;-74
2022/06/28 07:34:22;;;;;;;12.47;10.90;;;17.50;99.90;;;;;;5011582;28;20685;-75
2022/06/28 07:36:49;;;;;;;11.87;10.73;;;17.50;99.90;;;;;;4994004;28;20413;-74
2022/06/28 07:39:14;;;;;;;13.37;10.03;;;17.70;99.90;;;;;;4994827;28;20438;-74
2022/06/28 07:41:40;;;;;;;16.80;10.07;;;17.80;99.90;;;;;;5012700;28;20473;-75
2022/06/28 07:44:06;;;;;;;11.27;8.93;;;18.00;99.90;;;;;;5012150;28;20296;-74
2022/06/28 07:46:32;;;;;;;12.70;9.77;;;18.10;99.90;;;;;;5012093;28;20191;-74
2022/06/28 07:48:58;;;;;;;8.40;7.60;;;18.10;99.90;;;;;;5012273;28;20431;-74
2022/06/28 07:54:08;;;;;;;9.33;8.50;;;18.20;99.90;;;;;;5011550;28;20610;-73
2022/06/28 07:56:34;;;;;;;8.37;7.57;;;18.30;99.90;;;;;;4995363;28;20421;-74
2022/06/28 07:58:59;;;;;;;8.70;7.90;;;18.40;99.90;;;;;;5012725;28;20246;-74
2022/06/28 08:01:25;;;;;;;7.90;7.20;;;18.70;99.90;;;;;;5012490;28;20843;-74
2022/06/28 08:03:51;;;;;;;7.43;6.73;;;18.90;99.90;;;;;;5012208;28;20259;-74
2022/06/28 08:06:16;;;;;;;8.60;7.60;;;19.00;99.90;;;;;;4993821;28;20201;-74
2022/06/28 08:08:42;;;;;;;8.47;7.23;;;19.20;99.90;;;;;;4993583;28;20212;-74
2022/06/28 08:11:09;;;;;;;7.23;6.63;;;19.30;99.90;;;;;;5011180;28;20268;-74
2022/06/28 08:13:37;;;;;;;7.67;7.00;;;19.30;99.90;;;;;;5010721;28;20317;-74
2022/06/28 08:16:03;;;;;;;10.77;7.00;;;19.30;99.90;;;;;;5010451;28;20928;-74
2022/06/28 08:18:29;;;;;;;8.03;6.27;;;19.40;99.90;;;;;;5010108;28;20416;-74
2022/06/28 08:20:55;;;;;;;8.23;6.93;;;19.50;99.90;;;;;;4992630;28;20809;-74
2022/06/28 08:23:20;;;;;;;9.57;5.93;;;19.30;99.90;;;;;;5010007;28;20216;-74
2022/06/28 08:25:47;;;;;;;7.23;6.53;;;19.30;99.90;;;;;;5009710;28;20211;-74
2022/06/28 08:28:13;;;;;;;8.00;6.13;;;19.30;99.90;;;;;;4991979;28;20375;-74
2022/06/28 08:30:40;;;;;;;5.43;4.93;;;19.40;99.90;;;;;;5009429;28;20441;-74
2022/06/28 08:33:05;;;;;;;10.73;6.47;;;19.60;99.90;;;;;;4991869;28;20533;-74
2022/06/28 08:35:31;;;;;;;6.53;5.93;;;19.60;99.90;;;;;;4992276;28;20882;-74
2022/06/28 08:37:57;;;;;;;9.47;6.03;;;19.60;99.90;;;;;;5009697;28;20227;-74
2022/06/28 08:40:25;;;;;;;7.40;5.63;;;19.50;99.90;;;;;;4991762;28;20204;-74
2022/06/28 08:42:55;;;;;;;6.10;5.60;;;19.60;99.90;;;;;;4991801;28;20188;-74
2022/06/28 08:45:22;;;;;;;6.57;6.00;;;20.00;99.90;;;;;;5009801;28;20953;-74
2022/06/28 08:47:51;;;;;;;6.63;6.03;;;20.40;99.90;;;;;;5009742;28;20454;-74
2022/06/28 08:50:32;;;;;;;6.73;5.63;;;20.90;99.90;;;;;;5009654;28;20416;-74
2022/06/28 08:53:01;;;;;;;10.57;7.30;;;21.10;99.90;;;;;;5009381;28;20443;-74
2022/06/28 08:55:28;;;;;;;6.40;5.30;;;21.30;99.90;;;;;;5009261;28;20479;-74
2022/06/28 08:57:55;;;;;;;6.87;5.20;;;21.50;99.90;;;;;;5009307;28;20956;-74
2022/06/28 09:00:20;;;;;;;5.37;5.00;;;21.70;99.90;;;;;;5009191;28;20440;-74
2022/06/28 09:02:47;;;;;;;6.30;5.80;;;21.70;99.90;;;;;;4991482;28;20431;-74
2022/06/28 09:05:13;;;;;;;8.47;5.23;;;21.70;99.90;;;;;;4991418;28;20648;-74
2022/06/28 09:07:39;;;;;;;5.37;4.97;;;21.70;99.90;;;;;;4991438;28;20451;-74
2022/06/28 09:10:05;;;;;;;4.87;4.57;;;21.60;99.90;;;;;;4991134;28;20948;-74
2022/06/28 09:12:35;;;;;;;5.03;4.60;;;21.60;99.90;;;;;;4991446;28;20317;-74
2022/06/28 09:15:04;;;;;;;6.57;4.40;;;21.50;99.90;;;;;;5009165;28;20243;-74
2022/06/28 09:17:32;;;;;;;5.07;4.67;;;21.50;99.90;;;;;;5009711;28;20443;-74
2022/06/28 09:20:08;;;;;;;4.80;4.40;;;21.30;99.90;;;;;;5008730;28;20916;-74
2022/06/28 09:22:37;;;;;;;5.40;4.90;;;21.20;99.90;;;;;;5008827;28;21328;-74
2022/06/28 09:25:11;;;;;;;4.70;4.30;;;21.20;99.90;;;;;;4990748;28;20452;-74
2022/06/28 09:27:38;;;;;;;4.63;4.10;;;21.20;99.90;;;;;;5008402;28;20416;-75
2022/06/28 09:30:10;;;;;;;4.70;4.37;;;21.40;99.90;;;;;;5008336;28;20427;-75
2022/06/28 09:32:37;;;;;;;5.20;3.70;;;21.50;99.90;;;;;;5008774;28;20884;-75
2022/06/28 09:35:06;;;;;;;4.37;3.53;;;21.70;99.90;;;;;;5008791;28;20563;-75
2022/06/28 09:37:36;;;;;;;4.77;4.47;;;21.80;99.90;;;;;;5009008;28;20523;-75
2022/06/28 09:40:19;;;;;;;4.50;4.20;;;21.80;99.90;;;;;;5009041;28;20602;-74
2022/06/28 09:43:03;;;;;;;6.27;4.13;;;21.80;99.90;;;;;;5009500;28;20417;-74
2022/06/28 09:45:29;;;;;;;4.00;3.60;;;21.80;99.90;;;;;;5009077;28;20452;-76
2022/06/28 09:47:55;;;;;;;4.20;3.90;;;21.90;99.90;;;;;;4991606;28;20431;-76
2022/06/28 09:50:23;;;;;;;6.97;4.37;;;22.00;99.90;;;;;;4991736;28;20194;-76
2022/06/28 09:52:50;;;;;;;4.80;3.10;;;22.10;99.90;;;;;;5008956;28;21018;-76
2022/06/28 09:55:18;;;;;;;3.40;3.20;;;22.30;99.90;;;;;;5009144;28;20444;-76
2022/06/28 09:57:45;;;;;;;3.70;3.30;;;22.40;99.90;;;;;;5009236;28;20524;-76
2022/06/28 10:00:13;;;;;;;3.73;3.43;;;22.50;99.90;;;;;;4990930;28;20439;-76
2022/06/28 10:02:41;;;;;;;4.10;3.70;;;22.50;99.90;;;;;;5008616;28;20492;-76
2022/06/28 10:05:07;;;;;;;3.50;3.30;;;22.50;99.90;;;;;;4990412;28;20452;-76
2022/06/28 10:07:34;;;;;;;3.10;2.90;;;22.60;99.90;;;;;;5008405;28;21028;-77
2022/06/28 10:10:01;;;;;;;4.67;3.53;;;22.70;99.90;;;;;;5008718;28;20424;-76
2022/06/28 10:15:18;;;;;;;4.73;2.53;;;23.60;99.90;;;;;;4994083;28;20508;-76
2022/06/28 10:17:43;;;;;;;2.73;2.53;;;23.90;99.90;;;;;;5008934;28;20413;-77
2022/06/28 10:20:12;;;;;;;2.83;2.63;;;23.90;99.90;;;;;;5008774;28;20956;-76
2022/06/28 10:22:38;;;;;;;2.37;2.27;;;24.10;99.90;;;;;;5008549;28;20175;-76
2022/06/28 10:25:22;;;;;;;6.73;2.90;;;24.30;99.90;;;;;;5009927;28;20458;-79
2022/06/28 10:27:51;;;;;;;4.70;3.20;;;24.30;99.90;;;;;;5016420;28;20430;-78
2022/06/28 10:30:29;;;;;;;2.47;2.27;;;24.50;99.90;;;;;;4998580;28;20427;-78
2022/06/28 10:33:09;;;;;;;4.13;2.40;;;24.60;99.90;;;;;;4997299;28;20468;-78
2022/06/28 10:35:34;;;;;;;3.43;1.90;;;24.70;99.90;;;;;;5013645;28;21014;-78
2022/06/28 10:38:09;;;;;;;5.00;2.30;;;24.60;99.90;;;;;;4996026;28;20418;-78
2022/06/28 10:40:53;;;;;;;4.07;2.30;;;24.50;99.90;;;;;;5014975;28;20275;-79
2022/06/28 10:43:29;;;;;;;2.40;2.20;;;24.50;99.90;;;;;;4981553;28;20457;-79
2022/06/28 10:46:00;;;;;;;3.20;2.07;;;24.40;99.90;;;;;;4996682;28;20466;-77
2022/06/28 10:48:27;;;;;;;2.40;2.20;;;24.30;99.90;;;;;;5009531;28;20411;-77
2022/06/28 10:51:01;;;;;;;2.23;2.13;;;24.10;99.90;;;;;;5009547;28;20480;-77
2022/06/28 10:53:50;;;;;;;5.50;2.30;;;24.00;99.90;;;;;;4992136;28;20470;-77
2022/06/28 10:56:17;;;;;;;4.17;1.80;;;24.10;99.90;;;;;;5009322;28;20530;-77
2022/06/28 10:59:02;;;;;;;1.70;1.60;;;24.10;99.90;;;;;;5009330;28;20799;-77
2022/06/28 11:01:40;;;;;;;3.00;1.73;;;24.20;99.90;;;;;;5008961;28;20449;-76
2022/06/28 11:04:11;;;;;;;2.03;1.93;;;24.30;99.90;;;;;;5008567;28;20443;-77
2022/06/28 11:06:42;;;;;;;3.10;2.00;;;24.30;99.90;;;;;;5008568;28;20472;-76
2022/06/28 11:09:25;;;;;;;2.20;2.00;;;24.20;99.90;;;;;;5008306;28;20414;-76
2022/06/28 11:12:13;;;;;;;2.40;1.90;;;24.20;99.90;;;;;;5009571;28;20928;-77
2022/06/28 11:14:53;;;;;;;2.10;1.97;;;24.10;99.90;;;;;;5011801;28;20542;-77
2022/06/28 11:17:32;;;;;;;3.67;2.10;;;24.00;99.90;;;;;;5014119;28;20401;-77
2022/06/28 11:20:01;;;;;;;2.03;1.93;;;23.90;99.90;;;;;;5014968;28;20417;-77
2022/06/28 11:22:28;;;;;;;2.00;1.90;;;23.90;99.90;;;;;;5011552;28;20992;-77
2022/06/28 11:24:56;;;;;;;1.97;1.77;;;23.80;99.90;;;;;;5011406;28;20784;-77
2022/06/28 11:27:22;;;;;;;8.30;2.10;;;24.00;99.90;;;;;;5011366;28;20426;-77
2022/06/28 11:29:50;;;;;;;2.07;1.90;;;24.10;99.90;;;;;;4992945;28;20431;-77
2022/06/28 11:32:18;;;;;;;3.20;2.10;;;24.20;99.90;;;;;;4993017;28;20855;-77
2022/06/28 11:34:51;;;;;;;7.13;1.60;;;24.10;99.90;;;;;;4976532;28;20843;-77
2022/06/28 11:37:17;;;;;;;2.90;1.53;;;24.30;99.90;;;;;;5010893;28;20447;-77
2022/06/28 11:39:43;;;;;;;1.80;1.70;;;24.50;99.90;;;;;;5010572;28;20470;-77
2022/06/28 11:42:08;;;;;;;2.60;1.37;;;24.60;99.90;;;;;;4993019;28;20213;-77
2022/06/28 11:44:34;;;;;;;2.30;1.57;;;24.70;99.90;;;;;;5010614;28;20195;-77
2022/06/28 11:47:02;;;;;;;1.70;1.60;;;24.70;99.90;;;;;;5010528;28;20641;-77
2022/06/28 11:49:32;;;;;;;4.30;1.83;;;24.40;99.90;;;;;;4993097;28;20184;-77
2022/06/28 11:51:59;;;;;;;2.07;1.97;;;24.20;99.90;;;;;;5010072;28;20421;-77
2022/06/28 11:54:24;;;;;;;1.67;1.37;;;24.10;99.90;;;;;;4992190;28;20466;-77
2022/06/28 11:56:51;;;;;;;2.30;1.40;;;24.30;99.90;;;;;;5009878;28;20505;-77
2022/06/28 11:59:17;;;;;;;1.80;1.70;;;24.40;99.90;;;;;;4992284;28;20195;-76
2022/06/28 12:01:43;;;;;;;3.20;1.50;;;24.30;99.90;;;;;;5010322;28;20872;-78
2022/06/28 12:04:10;;;;;;;4.30;1.90;;;24.30;99.90;;;;;;4992047;28;20448;-77
2022/06/28 12:06:39;;;;;;;1.30;1.20;;;24.20;99.90;;;;;;5009718;28;20517;-77
2022/06/28 12:09:07;;;;;;;2.50;1.40;;;24.20;99.90;;;;;;5009645;28;20478;-76
2022/06/28 12:11:52;;;;;;;1.40;1.30;;;24.20;99.90;;;;;;5009678;28;20440;-77
2022/06/28 12:14:30;;;;;;;2.37;1.90;;;24.10;99.90;;;;;;4991959;28;20483;-77
2022/06/28 12:16:58;;;;;;;3.43;1.50;;;24.00;99.90;;;;;;5009743;28;20453;-77
2022/06/28 12:19:29;;;;;;;1.50;1.40;;;24.00;99.90;;;;;;5009343;28;20501;-77
2022/06/28 12:22:11;;;;;;;2.33;1.30;;;23.80;99.90;;;;;;4991911;28;20537;-76
2022/06/28 12:24:51;;;;;;;2.80;1.53;;;23.80;99.90;;;;;;5009314;28;20436;-76
2022/06/28 12:27:36;;;;;;;1.83;1.40;;;23.70;99.90;;;;;;4991339;28;20474;-76
2022/06/28 12:30:04;;;;;;;1.47;1.37;;;23.80;99.90;;;;;;5008978;28;20939;-76
2022/06/28 12:32:30;;;;;;;3.43;1.73;;;23.80;99.90;;;;;;5009137;28;21049;-77
2022/06/28 12:35:04;;;;;;;1.93;1.83;;;23.80;99.90;;;;;;5009067;28;20441;-77
2022/06/28 12:37:29;;;;;;;1.80;1.70;;;23.60;99.90;;;;;;5009687;28;20427;-77
2022/06/28 12:39:56;;;;;;;1.83;1.50;;;23.50;99.90;;;;;;4991644;28;20452;-76
2022/06/28 12:42:22;;;;;;;2.43;1.50;;;23.30;99.90;;;;;;4992339;28;20419;-76
2022/06/28 12:44:48;;;;;;;1.70;1.60;;;23.20;99.90;;;;;;4992237;28;20443;-76
2022/06/28 12:47:13;;;;;;;1.67;1.57;;;23.20;99.90;;;;;;5009937;28;20423;-76
2022/06/28 12:49:39;;;;;;;4.20;1.63;;;23.40;99.90;;;;;;4992229;28;20695;-76
2022/06/28 12:52:06;;;;;;;6.40;2.13;;;23.60;99.90;;;;;;4992236;28;20187;-77
2022/06/28 12:54:32;;;;;;;1.90;1.80;;;23.90;99.90;;;;;;5009766;28;20609;-76
2022/06/28 12:56:58;;;;;;;3.17;1.80;;;24.10;99.90;;;;;;5009585;28;20453;-76
2022/06/28 12:59:24;;;;;;;1.47;1.37;;;24.00;99.90;;;;;;5009864;28;20423;-76
2022/06/28 13:01:49;;;;;;;3.17;1.47;;;24.00;99.90;;;;;;5010470;28;20426;-76